Cabazon, California
Current Conditions -  °F | °C
As of 12:53 AM on Saturday 25 Oct 2014 (Local Time) from KPSP Reporting Station
Clear Clear  
Wind Chill: 75°   Ceiling: Unl
Heat Index: 75°   Visibility: 10mi
Dew Point: 47°   Wind: 0mph
Humidity: 37%   Direction: NA
Pressure: 29.97"   Gusts: NA
Location:  33.92°N, 116.79°W
Report Text: KPSP 250753Z 00000KT 10SM CLR 24/08 A2997 RMK AO2 SLP144 T02390083 403500206
Loading
Personal Weather Stations






























Interactive Weather Map
Tropical Storm Tracking
New forecast layout! Learn more

10-Day Weather Forecast

Advertisements
Track Severe Weather on mobile